Port Angeles, WA

7:47 PM PDT on May 27, 2015 (GMT -0700)
RAWS | | Change Station
CLOSE
Current Station
Personal Weather Station
Location: Carlsborg, WA
Elevation: 1629 ft
Nearby Weather Stations

Elev 1629 ft 48.03 °N, 123.31 °W | Updated 38 minutes ago

Partly Cloudy
Partly Cloudy
63 °F
Feels Like 63 °F
N
1
Wind Variable Wind from North
Gusts 4.0 mph

Today
High -- | Low -- °F
--% Chance of Precip.
Yesterday
High -- | Low -- °F
Precip. -- in
5:22 AM 8:59 PM
Waxing Gibbous, 72% visible
Pressure 30.03 in
Visibility 10.0 miles
Clouds Clear
Dew Point 52 °F
Humidity 67%
Rainfall in
Snow Depth Not available.
UV 1 out of 12
Pollen 7.80 out of 12
Air Quality Not available.
Flu Activity Sporadic
METAR KCLM 280153Z AUTO 29006KT 10SM CLR 14/11 A3003 RMK AO2 SLP168 T01440106

More Conditions Fewer Conditions

Pressure 30.03 in
Visibility 10.0 miles
Clouds Clear
Dew Point 52 °F
Humidity 67%
Rainfall in
Snow Depth Not available.
UV 1 out of 12
Pollen 7.80 out of 12
Air Quality Not available.
Flu Activity Sporadic
METAR KCLM 280153Z AUTO 29006KT 10SM CLR 14/11 A3003 RMK AO2 SLP168 T01440106

More Conditions Fewer Conditions

10-Day Weather Forecast

Almanac

Astronomy

May. 27, 2015 Rise Set
Actual Time
Civil Twilight
Nautical Twilight
Astronomical Twilight
Moon
Length of Visible Light
Length of Day
Tomorrow will be .
, % of the Moon is Illuminated

Today's Extremes

State Highs State Lows

Community

WunderPhotos

Upload Photos

1,824,873 photos uploaded!

WunderBlogs® & News

Nearby

Air Quality

  Air Quality AQ Index Pollutant
Not available.

Snow Depth

Station Depth Elevation

Earthquake Activity

City Distance Mag. Time & Date
Minimum magnitude displayed is 2.5.

Coastal Water Temperatures

Place Temperature

Stations

Nearby Weather Stations

Station Location Temp. Windchill Dew Point Humidity Wind Precip. Elev Updated Type